Etusivu
METAR-TAF:

METAR-TAF

Lentoasemat :

Maseru, Lesotho

Leveyspiiri: 29-27S, Pituuspiiri: 027-33E, korkeus merenpinnasta: 1631 m

Tämänhetkinen sää

Tämä raportti tehtiin 10 tuntia ja 4 minuuttia sitten, kello 14.00 UTC
tyyntä
Lämpötila 16°C
Kosteus 29%
Ilmanpaine 1021 hPa
Näkyvyys 10 km tai enemmän
ei pilviä alle 1500 m:ssä eikä cumulonimbus-pilviä

METAR: FXMM 181400Z 00000KT CAVOK 16/M02 Q1021

Aika: 02:04 (00:04 UTC)


TAF: puuttuu

Säähavainnot ja -ennusteet yli 4000 lentoasemalta (METAR- ja TAF-raportit).

Käytössä olevat sääasemat on merkitty karttaan keltaisilla ja punaisilla pisteillä.

Aseta hiiri pisteen päälle nähdäksesi sääaseman nimen.

Klikkaa sitten nähdäksesi säähavainnot ja -ennusteet.

Kartan vaihtaminen: klikkaa mustalla rastilla varustettuja vihreitä pisteitä, niin voit zoomata sisään; viivalla varustettua vihreää pistettä, niin voit zoomata ulos tai vihreitä nuolia, niin pääset viereisille kartoille.


METAR-TAF: